Time;durP1;ratioP1;P1;durP2;ratioP2;P2;SDS_P1;SDS_P2;PMS_P1;PMS_P2;Temp;Humidity;BMP_temperature;BMP_pressure;BME280_temperature;BME280_humidity;BME280_pressure;Samples;Min_cycle;Max_cycle;Signal;HPM_P1;HPM_P2
2022/11/16 00:01:13;;;;;;;16.30;8.70;;;10.10;99.90;;;;;;5032028;28;20528;-69
2022/11/16 00:03:40;;;;;;;12.97;9.43;;;10.10;99.90;;;;;;5032772;28;20481;-69
2022/11/16 00:06:08;;;;;;;10.33;8.10;;;10.10;99.90;;;;;;5032477;28;20462;-69
2022/11/16 00:08:37;;;;;;;10.10;8.50;;;10.10;99.90;;;;;;5032758;28;20461;-70
2022/11/16 00:11:06;;;;;;;12.60;9.03;;;10.10;99.90;;;;;;5031826;28;20477;-69
2022/11/16 00:13:32;;;;;;;12.50;9.20;;;10.10;99.90;;;;;;5032589;28;20474;-69
2022/11/16 00:15:59;;;;;;;16.13;8.87;;;10.10;99.90;;;;;;5031957;28;20454;-69
2022/11/16 00:18:28;;;;;;;15.43;9.20;;;10.00;99.90;;;;;;5032207;28;20489;-69
2022/11/16 00:20:54;;;;;;;13.57;9.77;;;10.00;99.90;;;;;;5031632;28;20458;-69
2022/11/16 00:23:22;;;;;;;12.60;9.20;;;10.00;99.90;;;;;;5032345;28;20876;-69
2022/11/16 00:25:49;;;;;;;13.43;9.90;;;9.90;99.90;;;;;;5032070;28;20450;-69
2022/11/16 00:28:16;;;;;;;13.83;9.73;;;9.90;99.90;;;;;;5031598;28;20830;-69
2022/11/16 00:30:43;;;;;;;15.90;9.60;;;9.80;99.90;;;;;;5031937;28;20446;-69
2022/11/16 00:33:13;;;;;;;17.63;9.43;;;9.90;99.90;;;;;;5032230;28;20470;-69
2022/11/16 00:35:41;;;;;;;22.13;8.63;;;9.80;99.90;;;;;;5031666;28;20454;-69
2022/11/16 00:38:08;;;;;;;15.30;9.70;;;9.80;99.90;;;;;;5030968;28;20494;-69
2022/11/16 00:40:35;;;;;;;17.70;9.50;;;9.80;99.90;;;;;;5031853;28;20462;-69
2022/11/16 00:43:01;;;;;;;17.23;10.53;;;9.80;99.90;;;;;;5032007;28;20470;-69
2022/11/16 00:45:28;;;;;;;11.20;9.13;;;9.80;99.90;;;;;;5030869;28;20454;-69
2022/11/16 00:47:55;;;;;;;12.17;8.40;;;9.90;99.90;;;;;;5031692;28;20965;-70
2022/11/16 00:50:21;;;;;;;12.53;9.23;;;9.90;99.90;;;;;;5031344;28;20812;-69
2022/11/16 00:52:49;;;;;;;14.23;9.97;;;9.90;99.90;;;;;;5031697;28;20478;-70
2022/11/16 00:55:16;;;;;;;12.87;9.40;;;9.90;99.90;;;;;;5025514;28;20462;-69
2022/11/16 00:57:43;;;;;;;10.50;9.17;;;9.90;99.90;;;;;;5031628;28;20948;-69
2022/11/16 01:00:11;;;;;;;15.33;9.53;;;9.90;99.90;;;;;;5031469;28;20846;-69
2022/11/16 01:02:39;;;;;;;15.63;10.00;;;9.90;99.90;;;;;;5031475;28;20474;-69
2022/11/16 01:05:07;;;;;;;14.57;8.80;;;9.90;99.90;;;;;;5029926;28;20454;-69
2022/11/16 01:07:34;;;;;;;20.33;9.40;;;9.90;99.90;;;;;;5031690;28;20465;-69
2022/11/16 01:10:03;;;;;;;20.10;10.37;;;9.90;99.90;;;;;;5030771;28;20454;-69
2022/11/16 01:12:30;;;;;;;17.37;9.77;;;9.90;99.90;;;;;;5031315;28;21028;-69
2022/11/16 01:14:56;;;;;;;17.80;11.00;;;9.90;99.90;;;;;;5030607;28;20974;-69
2022/11/16 01:17:23;;;;;;;12.90;9.70;;;9.90;99.90;;;;;;5030908;28;20884;-69
2022/11/16 01:19:50;;;;;;;16.80;10.00;;;9.90;99.90;;;;;;5030963;28;20527;-69
2022/11/16 01:22:16;;;;;;;15.13;10.07;;;9.90;99.90;;;;;;5024828;28;20450;-69
2022/11/16 01:24:45;;;;;;;13.43;10.10;;;9.80;99.90;;;;;;5030725;28;20450;-69
2022/11/16 01:27:13;;;;;;;12.03;9.20;;;9.80;99.90;;;;;;5030834;28;21017;-69
2022/11/16 01:29:40;;;;;;;20.30;10.00;;;9.80;99.90;;;;;;5030743;28;20465;-69
2022/11/16 01:32:06;;;;;;;12.60;9.60;;;9.80;99.90;;;;;;5030584;28;20458;-69
2022/11/16 01:34:33;;;;;;;22.33;9.00;;;9.80;99.90;;;;;;5030832;28;20472;-69
2022/11/16 01:37:00;;;;;;;15.47;9.93;;;9.80;99.90;;;;;;5030406;28;20516;-69
2022/11/16 01:39:26;;;;;;;14.27;9.20;;;9.80;99.90;;;;;;5031054;28;20482;-69
2022/11/16 01:41:53;;;;;;;19.13;11.13;;;9.70;99.90;;;;;;5030487;28;20450;-69
2022/11/16 01:44:56;;;;;;;15.30;9.60;;;9.70;99.90;;;;;;5030676;28;20478;-69
2022/11/16 01:47:23;;;;;;;13.53;10.07;;;9.70;99.90;;;;;;5028144;28;20903;-69
2022/11/16 01:49:54;;;;;;;16.33;9.70;;;9.70;99.90;;;;;;5030234;28;20451;-69
2022/11/16 01:52:25;;;;;;;16.60;9.40;;;9.60;99.90;;;;;;5027488;28;20455;-69
2022/11/16 01:54:53;;;;;;;13.70;10.10;;;9.60;99.90;;;;;;5030811;28;20458;-69
2022/11/16 01:57:24;;;;;;;15.20;10.10;;;9.60;99.90;;;;;;5030892;28;20456;-69
2022/11/16 01:59:54;;;;;;;13.63;10.50;;;9.60;99.90;;;;;;5030893;28;20478;-69
2022/11/16 02:02:22;;;;;;;17.60;11.03;;;9.60;99.90;;;;;;5029949;28;20465;-69
2022/11/16 02:04:51;;;;;;;19.43;11.30;;;9.60;99.90;;;;;;5028041;28;20458;-69
2022/11/16 02:07:30;;;;;;;18.07;10.30;;;9.60;99.90;;;;;;5030098;28;20508;-70
2022/11/16 02:10:09;;;;;;;14.40;10.93;;;9.60;99.90;;;;;;5030561;28;20446;-69
2022/11/16 02:13:10;;;;;;;17.33;10.90;;;9.50;99.90;;;;;;5030890;28;20465;-69
2022/11/16 02:15:41;;;;;;;15.30;10.13;;;9.50;99.90;;;;;;5030709;28;20490;-70
2022/11/16 02:18:20;;;;;;;17.13;10.93;;;9.50;99.90;;;;;;5030226;28;20487;-70
2022/11/16 02:20:57;;;;;;;17.70;11.20;;;9.50;99.90;;;;;;5030573;28;20462;-69
2022/11/16 02:24:00;;;;;;;17.93;10.93;;;9.50;99.90;;;;;;5024164;28;20484;-69
2022/11/16 02:27:02;;;;;;;15.53;10.93;;;9.50;99.90;;;;;;5022931;28;20454;-69
2022/11/16 02:29:33;;;;;;;17.07;11.40;;;9.50;99.90;;;;;;5025137;28;20976;-69
2022/11/16 02:32:04;;;;;;;13.93;10.63;;;9.50;99.90;;;;;;5028184;28;20454;-69
2022/11/16 02:34:36;;;;;;;21.63;11.00;;;9.40;99.90;;;;;;5030460;28;20544;-69
2022/11/16 02:37:06;;;;;;;16.40;11.77;;;9.40;99.90;;;;;;5030127;28;20458;-69
2022/11/16 02:39:34;;;;;;;13.73;11.03;;;9.40;99.90;;;;;;5029916;28;20520;-69
2022/11/16 02:42:03;;;;;;;17.47;11.00;;;9.30;99.90;;;;;;5029706;28;20445;-69
2022/11/16 02:44:35;;;;;;;17.50;11.07;;;9.30;99.90;;;;;;5030542;28;20473;-69
2022/11/16 02:47:06;;;;;;;20.27;12.87;;;9.30;99.90;;;;;;5030291;28;20457;-69
2022/11/16 02:49:37;;;;;;;21.57;12.63;;;9.20;99.90;;;;;;5030900;28;20529;-69
2022/11/16 02:52:04;;;;;;;17.70;11.30;;;9.20;99.90;;;;;;5029397;28;21241;-69
2022/11/16 02:54:31;;;;;;;18.03;11.57;;;9.20;99.90;;;;;;5029675;28;20485;-69
2022/11/16 02:57:26;;;;;;;23.87;13.13;;;9.20;99.90;;;;;;5029943;28;20461;-69
2022/11/16 02:59:57;;;;;;;18.20;12.30;;;9.20;99.90;;;;;;5030007;28;20485;-69
2022/11/16 03:02:27;;;;;;;19.07;12.87;;;9.10;99.90;;;;;;5031581;28;20454;-69
2022/11/16 03:04:59;;;;;;;16.67;12.07;;;9.10;99.90;;;;;;5033480;28;20457;-69
2022/11/16 03:07:31;;;;;;;22.97;12.90;;;9.10;99.90;;;;;;5028628;28;20457;-69
2022/11/16 03:10:00;;;;;;;19.60;12.47;;;9.10;99.90;;;;;;5033569;28;20640;-69
2022/11/16 03:12:30;;;;;;;19.70;13.13;;;9.10;99.90;;;;;;5033477;28;20568;-69
2022/11/16 03:15:01;;;;;;;15.67;11.73;;;9.10;99.90;;;;;;5033081;28;20446;-69
2022/11/16 03:17:30;;;;;;;20.93;13.87;;;9.10;99.90;;;;;;5028414;28;20454;-69
2022/11/16 03:20:04;;;;;;;21.00;14.07;;;9.00;99.90;;;;;;5033179;28;20484;-69
2022/11/16 03:22:36;;;;;;;19.33;12.60;;;9.00;99.90;;;;;;5028174;28;20536;-69
2022/11/16 03:25:04;;;;;;;22.10;13.33;;;9.00;99.90;;;;;;5033340;28;20450;-69
2022/11/16 03:27:38;;;;;;;22.60;14.33;;;9.00;99.90;;;;;;5033488;28;20497;-69
2022/11/16 03:30:10;;;;;;;21.60;14.70;;;9.00;99.90;;;;;;5031654;28;20477;-69
2022/11/16 03:32:43;;;;;;;24.13;15.13;;;9.00;99.90;;;;;;5028649;28;20470;-70
2022/11/16 03:35:15;;;;;;;25.70;15.00;;;9.00;99.90;;;;;;5030003;28;20454;-69
2022/11/16 03:37:45;;;;;;;23.27;15.37;;;9.00;99.90;;;;;;5033519;28;20454;-69
2022/11/16 03:40:13;;;;;;;28.60;15.97;;;9.00;99.90;;;;;;5032025;28;20486;-69
2022/11/16 03:42:42;;;;;;;24.63;16.50;;;9.00;99.90;;;;;;5033366;28;20477;-69
2022/11/16 03:45:11;;;;;;;22.77;15.73;;;9.00;99.90;;;;;;5033169;28;20449;-69
2022/11/16 03:47:39;;;;;;;21.80;15.33;;;9.10;99.90;;;;;;5033264;28;20454;-69
2022/11/16 03:50:07;;;;;;;22.23;15.50;;;9.00;99.90;;;;;;5032053;28;20799;-69
2022/11/16 03:52:34;;;;;;;22.03;16.13;;;9.10;99.90;;;;;;5032524;28;20450;-69
2022/11/16 03:55:01;;;;;;;27.37;16.17;;;9.10;99.90;;;;;;5032584;28;20477;-69
2022/11/16 03:57:28;;;;;;;24.10;15.50;;;9.10;99.90;;;;;;5033104;28;20464;-69
2022/11/16 03:59:54;;;;;;;23.03;14.70;;;9.10;99.90;;;;;;5032030;28;20478;-69
2022/11/16 04:02:22;;;;;;;24.83;15.30;;;9.20;99.90;;;;;;5032539;28;20454;-69
2022/11/16 04:24:12;;;;;;;25.70;15.53;;;9.30;99.90;;;;;;5031977;28;20832;-69
2022/11/16 04:29:25;;;;;;;25.80;16.90;;;9.20;99.90;;;;;;5032048;28;20472;-69
2022/11/16 04:40:07;;;;;;;25.97;17.57;;;9.20;99.90;;;;;;5031600;28;20886;-69
2022/11/16 04:42:34;;;;;;;25.47;17.13;;;9.20;99.90;;;;;;5031841;28;20508;-69
2022/11/16 04:47:45;;;;;;;24.90;17.23;;;9.20;99.90;;;;;;5027931;28;20581;-69
2022/11/16 04:50:13;;;;;;;26.77;16.63;;;9.20;99.90;;;;;;5031265;28;20884;-69
2022/11/16 04:52:40;;;;;;;24.40;15.80;;;9.20;99.90;;;;;;5031682;28;20474;-69
2022/11/16 04:55:07;;;;;;;23.00;16.60;;;9.20;99.90;;;;;;5031365;28;20848;-69
2022/11/16 04:57:34;;;;;;;25.30;17.57;;;9.20;99.90;;;;;;5031417;28;20454;-69
2022/11/16 05:00:00;;;;;;;30.13;18.60;;;9.20;99.90;;;;;;5031230;28;21017;-69
2022/11/16 05:02:27;;;;;;;32.93;19.07;;;9.20;99.90;;;;;;5031329;28;20453;-69
2022/11/16 05:04:54;;;;;;;32.83;19.70;;;9.20;99.90;;;;;;5030479;28;20825;-68
2022/11/16 05:07:22;;;;;;;31.50;20.03;;;9.20;99.90;;;;;;5030424;28;20454;-68
2022/11/16 05:09:49;;;;;;;25.40;18.60;;;9.20;99.90;;;;;;5031080;28;20508;-68
2022/11/16 05:12:17;;;;;;;30.07;19.03;;;9.20;99.90;;;;;;5029064;28;20454;-69
2022/11/16 05:14:44;;;;;;;28.27;18.57;;;9.20;99.90;;;;;;5029339;28;20461;-68
2022/11/16 05:17:12;;;;;;;29.40;20.90;;;9.20;99.90;;;;;;5029760;28;20973;-68
2022/11/16 05:22:25;;;;;;;28.47;19.23;;;9.20;99.90;;;;;;5029583;28;20441;-68
2022/11/16 05:24:52;;;;;;;33.73;19.17;;;9.20;99.90;;;;;;5030131;28;20462;-68
2022/11/16 05:27:21;;;;;;;29.83;18.90;;;9.20;99.90;;;;;;5030741;28;20454;-68
2022/11/16 05:29:48;;;;;;;31.90;20.87;;;9.20;99.90;;;;;;5031375;28;20541;-68
2022/11/16 05:32:16;;;;;;;29.77;18.53;;;9.20;99.90;;;;;;5030607;28;20489;-68
2022/11/16 05:34:43;;;;;;;29.77;19.47;;;9.20;99.90;;;;;;5031192;28;20450;-68
2022/11/16 05:37:10;;;;;;;32.07;19.57;;;9.20;99.90;;;;;;5030180;28;20458;-68
2022/11/16 05:39:38;;;;;;;35.50;21.07;;;9.20;99.90;;;;;;5031535;28;20501;-68
2022/11/16 05:42:05;;;;;;;31.53;19.40;;;9.20;99.90;;;;;;5031225;28;20454;-68
2022/11/16 05:44:32;;;;;;;35.90;20.93;;;9.20;99.90;;;;;;5031395;28;20520;-68
2022/11/16 05:46:59;;;;;;;32.40;18.87;;;9.20;99.90;;;;;;5031512;28;20458;-68
2022/11/16 05:49:26;;;;;;;32.00;19.53;;;9.20;99.90;;;;;;5031537;28;20504;-68
2022/11/16 05:51:53;;;;;;;48.27;21.60;;;9.20;99.90;;;;;;5030547;28;20458;-68
2022/11/16 05:54:23;;;;;;;35.20;21.40;;;9.20;99.90;;;;;;5031200;28;20822;-68
2022/11/16 05:56:52;;;;;;;31.13;19.83;;;9.20;99.90;;;;;;5031489;28;20458;-67
2022/11/16 05:59:21;;;;;;;35.90;21.30;;;9.20;99.90;;;;;;5031577;28;20851;-68
2022/11/16 06:01:48;;;;;;;33.07;20.30;;;9.20;99.90;;;;;;5031420;28;20503;-68
2022/11/16 06:04:15;;;;;;;36.30;21.93;;;9.20;99.90;;;;;;5031150;28;20477;-69
2022/11/16 06:06:42;;;;;;;38.07;21.87;;;9.20;99.90;;;;;;5031111;28;20457;-69
2022/11/16 06:09:11;;;;;;;33.83;20.27;;;9.20;99.90;;;;;;5030429;28;20465;-67
2022/11/16 06:11:37;;;;;;;36.10;20.83;;;9.20;99.90;;;;;;5031235;28;20563;-68
2022/11/16 06:14:06;;;;;;;35.50;20.90;;;9.20;99.90;;;;;;5031192;28;20527;-68
2022/11/16 06:16:33;;;;;;;39.80;22.07;;;9.20;99.90;;;;;;5030070;28;20450;-67
2022/11/16 06:19:00;;;;;;;43.27;22.50;;;9.20;99.90;;;;;;5030040;28;20453;-68
2022/11/16 06:21:27;;;;;;;36.37;20.50;;;9.20;99.90;;;;;;5031301;28;20490;-68
2022/11/16 06:23:54;;;;;;;35.77;21.00;;;9.20;99.90;;;;;;5031217;28;20878;-68
2022/11/16 06:26:20;;;;;;;36.73;20.93;;;9.20;99.90;;;;;;5031632;28;20481;-67
2022/11/16 06:28:47;;;;;;;37.30;21.47;;;9.20;99.90;;;;;;5031174;28;20503;-68
2022/11/16 06:31:15;;;;;;;33.80;19.97;;;9.30;99.90;;;;;;5031059;28;20442;-68
2022/11/16 06:33:42;;;;;;;38.93;21.63;;;9.30;99.90;;;;;;5031443;28;20603;-68
2022/11/16 06:36:09;;;;;;;37.63;20.73;;;9.30;99.90;;;;;;5033444;28;20476;-68
2022/11/16 06:38:35;;;;;;;40.27;20.23;;;9.30;99.90;;;;;;5035226;28;20456;-68
2022/11/16 06:41:02;;;;;;;33.93;19.60;;;9.30;99.90;;;;;;5034819;28;20481;-68
2022/11/16 06:43:29;;;;;;;33.47;17.83;;;9.30;99.90;;;;;;5034734;28;20821;-68
2022/11/16 06:45:57;;;;;;;32.67;19.40;;;9.30;99.90;;;;;;5035077;28;20453;-69
2022/11/16 06:48:26;;;;;;;36.83;19.60;;;9.40;99.90;;;;;;5035095;28;20533;-68
2022/11/16 06:50:53;;;;;;;31.13;18.60;;;9.40;99.90;;;;;;5034733;28;21064;-68
2022/11/16 06:53:20;;;;;;;33.00;18.13;;;9.40;99.90;;;;;;5034703;28;20473;-68
2022/11/16 06:55:47;;;;;;;30.13;17.80;;;9.40;99.90;;;;;;5034972;28;20471;-68
2022/11/16 06:58:14;;;;;;;29.50;17.10;;;9.40;99.90;;;;;;5034733;28;20450;-68
2022/11/16 07:00:40;;;;;;;27.17;16.87;;;9.40;99.90;;;;;;5034833;28;20520;-68
2022/11/16 07:03:07;;;;;;;26.47;16.77;;;9.40;99.90;;;;;;5034720;28;20509;-67
2022/11/16 07:05:40;;;;;;;30.73;17.20;;;9.40;99.90;;;;;;5034749;28;20450;-68
2022/11/16 07:08:06;;;;;;;23.50;15.17;;;9.40;99.90;;;;;;5034566;28;21013;-68
2022/11/16 07:10:33;;;;;;;26.13;15.80;;;9.40;99.90;;;;;;5034392;28;20459;-67
2022/11/16 07:13:02;;;;;;;23.17;15.20;;;9.40;99.90;;;;;;5034277;28;20466;-67
2022/11/16 07:15:29;;;;;;;31.33;17.27;;;9.40;99.90;;;;;;5034590;28;20477;-67
2022/11/16 07:17:55;;;;;;;22.93;15.73;;;9.50;99.90;;;;;;5034189;28;20953;-68
2022/11/16 07:20:22;;;;;;;34.33;17.43;;;9.50;99.90;;;;;;5034057;28;21055;-67
2022/11/16 07:22:50;;;;;;;26.80;15.93;;;9.50;99.90;;;;;;5034417;28;20565;-67
2022/11/16 07:25:17;;;;;;;32.20;17.40;;;9.50;99.90;;;;;;5034057;28;20457;-67
2022/11/16 07:27:44;;;;;;;28.70;16.47;;;9.50;99.90;;;;;;5034390;28;20505;-68
2022/11/16 07:30:12;;;;;;;24.93;15.67;;;9.40;99.90;;;;;;5034015;28;20442;-67
2022/11/16 07:32:38;;;;;;;26.40;16.83;;;9.50;99.90;;;;;;5034060;28;20470;-67
2022/11/16 07:35:06;;;;;;;23.67;15.43;;;9.50;99.90;;;;;;5034119;28;20453;-68
2022/11/16 07:37:33;;;;;;;26.10;15.30;;;9.50;99.90;;;;;;5034066;28;20957;-67
2022/11/16 07:40:01;;;;;;;20.43;14.90;;;9.50;99.90;;;;;;5033754;28;20493;-68
2022/11/16 07:42:27;;;;;;;22.00;14.90;;;9.50;99.90;;;;;;5033939;28;20447;-68
2022/11/16 07:44:54;;;;;;;21.40;14.53;;;9.50;99.90;;;;;;5030535;28;20494;-68
2022/11/16 07:47:21;;;;;;;22.10;14.23;;;9.60;99.90;;;;;;5013659;28;20451;-68
2022/11/16 07:49:47;;;;;;;21.67;15.10;;;9.70;99.90;;;;;;5014078;28;20512;-67
2022/11/16 07:52:14;;;;;;;22.67;14.50;;;9.80;99.90;;;;;;5013717;28;20450;-68
2022/11/16 07:54:41;;;;;;;26.77;14.90;;;9.90;99.90;;;;;;5013866;28;20493;-67
2022/11/16 07:57:09;;;;;;;20.57;14.27;;;9.90;99.90;;;;;;5014213;28;20451;-67
2022/11/16 07:59:35;;;;;;;22.97;15.10;;;9.90;99.90;;;;;;5013928;28;20443;-68
2022/11/16 08:02:02;;;;;;;20.33;14.77;;;9.90;99.90;;;;;;5013773;28;20427;-68
2022/11/16 08:04:29;;;;;;;22.70;15.20;;;10.00;99.90;;;;;;5014207;28;20542;-68
2022/11/16 08:06:56;;;;;;;20.77;14.27;;;10.00;99.90;;;;;;5033793;28;20480;-68
2022/11/16 08:09:22;;;;;;;25.23;16.47;;;10.00;99.90;;;;;;5033681;28;20829;-68
2022/11/16 08:11:50;;;;;;;22.20;14.60;;;10.30;99.90;;;;;;5033382;28;20450;-68
2022/11/16 08:14:18;;;;;;;22.23;14.50;;;10.80;99.90;;;;;;5033268;28;20475;-68
2022/11/16 08:16:45;;;;;;;18.63;12.40;;;11.30;99.90;;;;;;5033127;28;20454;-68
2022/11/16 08:19:11;;;;;;;29.77;13.10;;;11.50;99.90;;;;;;5033557;28;20885;-68
2022/11/16 08:21:38;;;;;;;21.97;11.53;;;12.00;99.90;;;;;;5032839;28;20491;-68
2022/11/16 08:24:05;;;;;;;15.20;11.03;;;12.50;99.90;;;;;;5033446;28;20470;-68
2022/11/16 08:26:32;;;;;;;12.00;9.77;;;12.70;99.90;;;;;;5033204;28;20457;-68
2022/11/16 08:28:59;;;;;;;10.10;8.20;;;12.80;99.90;;;;;;5033247;28;20454;-68
2022/11/16 08:31:28;;;;;;;11.20;8.87;;;13.00;99.90;;;;;;5032501;28;20446;-68
2022/11/16 08:33:56;;;;;;;8.50;7.10;;;13.30;99.90;;;;;;5033214;28;20469;-68
2022/11/16 08:36:23;;;;;;;7.60;6.07;;;13.50;99.90;;;;;;5033071;28;20540;-68
2022/11/16 08:38:50;;;;;;;6.60;5.30;;;13.80;99.90;;;;;;5032978;28;20462;-68
2022/11/16 08:41:18;;;;;;;7.03;5.37;;;14.10;99.90;;;;;;5032705;28;20489;-68
2022/11/16 08:43:49;;;;;;;7.33;4.90;;;14.00;99.90;;;;;;5032864;28;20473;-68
2022/11/16 08:46:16;;;;;;;6.70;4.87;;;13.70;99.90;;;;;;5018358;28;20539;-68
2022/11/16 08:48:44;;;;;;;8.33;3.20;;;13.60;99.90;;;;;;5013240;28;20447;-68
2022/11/16 08:51:13;;;;;;;2.90;2.60;;;13.40;99.90;;;;;;5012717;28;20462;-68
2022/11/16 08:53:40;;;;;;;3.17;2.30;;;13.30;99.90;;;;;;5012930;28;20477;-68
2022/11/16 08:56:10;;;;;;;5.03;2.30;;;13.20;99.90;;;;;;5012597;28;20878;-68
2022/11/16 08:58:37;;;;;;;4.60;2.20;;;13.00;99.90;;;;;;5012055;28;20550;-68
2022/11/16 09:01:08;;;;;;;4.40;2.33;;;12.70;99.90;;;;;;5012250;28;20483;-68
2022/11/16 09:03:35;;;;;;;2.93;2.00;;;12.40;99.90;;;;;;5013166;28;20475;-68
2022/11/16 09:06:04;;;;;;;6.30;2.03;;;12.20;99.90;;;;;;5026028;28;20450;-68
2022/11/16 09:08:31;;;;;;;3.83;1.93;;;12.00;99.90;;;;;;5032395;28;20460;-68
2022/11/16 09:10:57;;;;;;;5.63;2.03;;;11.90;99.90;;;;;;5031976;28;20454;-68
2022/11/16 09:13:25;;;;;;;2.30;2.10;;;11.90;99.90;;;;;;5032324;28;20470;-68
2022/11/16 09:15:56;;;;;;;5.83;2.20;;;11.90;99.90;;;;;;5032090;28;20446;-68
2022/11/16 09:18:23;;;;;;;1.97;1.77;;;12.00;99.90;;;;;;5032059;28;20482;-68
2022/11/16 09:20:50;;;;;;;5.57;2.27;;;12.00;99.90;;;;;;5031835;28;20485;-68
2022/11/16 09:23:18;;;;;;;6.17;2.17;;;12.10;99.90;;;;;;5031855;28;20478;-68
2022/11/16 09:25:47;;;;;;;2.23;1.73;;;12.10;99.90;;;;;;5032299;28;20449;-68
2022/11/16 09:28:14;;;;;;;5.67;2.30;;;12.20;99.90;;;;;;5032032;28;20513;-68
2022/11/16 09:30:41;;;;;;;7.10;2.70;;;12.20;99.90;;;;;;5031924;28;20453;-68
2022/11/16 09:33:07;;;;;;;4.93;2.43;;;12.30;99.90;;;;;;5031855;28;20477;-68
2022/11/16 09:35:34;;;;;;;4.67;2.20;;;12.50;99.90;;;;;;5031816;28;21015;-68
2022/11/16 09:38:01;;;;;;;6.23;2.10;;;12.90;99.90;;;;;;5032028;28;20473;-68
2022/11/16 09:40:34;;;;;;;6.10;2.37;;;13.30;99.90;;;;;;5031802;28;20488;-68
2022/11/16 09:43:06;;;;;;;2.93;1.90;;;13.90;99.90;;;;;;5031681;28;20482;-68
2022/11/16 09:45:42;;;;;;;5.80;2.20;;;14.40;99.90;;;;;;5023490;28;20947;-68
2022/11/16 09:48:12;;;;;;;2.50;1.90;;;14.90;99.90;;;;;;5011783;28;20454;-68
2022/11/16 09:50:44;;;;;;;4.43;2.20;;;15.20;99.90;;;;;;5012362;28;20455;-68
2022/11/16 09:53:31;;;;;;;7.10;1.93;;;15.30;99.90;;;;;;5011904;28;20521;-68
2022/11/16 09:56:03;;;;;;;6.67;1.80;;;15.10;99.90;;;;;;5011883;28;20458;-68
2022/11/16 09:58:36;;;;;;;1.97;1.70;;;15.10;99.90;;;;;;5011625;28;20876;-68
2022/11/16 10:01:07;;;;;;;5.40;2.27;;;15.20;99.90;;;;;;5011891;28;20486;-68
2022/11/16 10:03:41;;;;;;;2.70;1.50;;;15.30;99.90;;;;;;5011983;28;20839;-68
2022/11/16 10:06:17;;;;;;;3.50;1.80;;;15.40;99.90;;;;;;5025815;28;20463;-68
2022/11/16 10:08:46;;;;;;;4.77;2.30;;;15.70;99.90;;;;;;5031540;28;20449;-68
2022/11/16 10:11:45;;;;;;;3.67;2.20;;;15.40;99.90;;;;;;5035717;28;20424;-68
2022/11/16 10:14:37;;;;;;;5.07;1.97;;;15.40;99.90;;;;;;5037740;28;20474;-68
2022/11/16 10:17:09;;;;;;;13.13;2.33;;;15.60;99.90;;;;;;5037756;28;20511;-68
2022/11/16 10:19:45;;;;;;;2.77;1.93;;;15.80;99.90;;;;;;5038051;28;20432;-68
2022/11/16 10:22:25;;;;;;;5.27;2.10;;;16.00;99.90;;;;;;5037696;28;20543;-68
2022/11/16 10:24:57;;;;;;;3.67;1.70;;;15.60;99.90;;;;;;5038033;28;20452;-68
2022/11/16 10:27:45;;;;;;;8.03;2.20;;;15.10;99.90;;;;;;5038054;28;20445;-68
2022/11/16 10:30:15;;;;;;;10.93;2.10;;;15.00;99.90;;;;;;5037965;28;20454;-68
2022/11/16 10:32:49;;;;;;;5.83;1.90;;;14.50;99.90;;;;;;5038106;28;20623;-68
2022/11/16 10:35:18;;;;;;;8.97;2.30;;;14.30;99.90;;;;;;5038188;28;20454;-68
2022/11/16 10:37:48;;;;;;;7.63;1.80;;;14.00;99.90;;;;;;5037782;28;20450;-68
2022/11/16 10:40:22;;;;;;;7.87;2.00;;;13.90;99.90;;;;;;5038037;28;20449;-68
2022/11/16 10:43:02;;;;;;;5.03;2.03;;;13.60;99.90;;;;;;5037423;28;20976;-68
2022/11/16 10:45:35;;;;;;;4.60;2.03;;;13.50;99.90;;;;;;5029641;28;20457;-68
2022/11/16 10:48:08;;;;;;;6.57;1.80;;;13.40;99.90;;;;;;5017947;28;20534;-68
2022/11/16 10:50:39;;;;;;;2.03;1.47;;;13.50;99.90;;;;;;5018067;28;20487;-68
2022/11/16 10:53:06;;;;;;;6.30;1.97;;;13.40;99.90;;;;;;5018077;28;20540;-68
2022/11/16 10:55:32;;;;;;;6.30;2.00;;;13.50;99.90;;;;;;5017872;28;20818;-68
2022/11/16 10:58:02;;;;;;;6.50;1.87;;;13.60;99.90;;;;;;5018025;28;20517;-68
2022/11/16 11:00:38;;;;;;;12.53;2.23;;;13.50;99.90;;;;;;5017688;28;20481;-68
2022/11/16 11:03:06;;;;;;;9.13;2.23;;;13.50;99.90;;;;;;5018012;28;20478;-68
2022/11/16 11:05:35;;;;;;;5.23;1.90;;;13.20;99.90;;;;;;5027294;28;20442;-68
2022/11/16 11:08:03;;;;;;;6.93;2.03;;;13.20;99.90;;;;;;5037675;28;20450;-68
2022/11/16 11:10:32;;;;;;;4.20;1.73;;;13.00;99.90;;;;;;5037268;28;20458;-68
2022/11/16 11:13:19;;;;;;;13.73;2.30;;;12.90;99.90;;;;;;5037600;28;20816;-68
2022/11/16 11:15:46;;;;;;;8.23;2.33;;;12.90;99.90;;;;;;5037677;28;20445;-68
2022/11/16 11:18:19;;;;;;;6.90;2.17;;;13.00;99.90;;;;;;5037452;28;20512;-68
2022/11/16 11:20:49;;;;;;;14.13;2.27;;;13.00;99.90;;;;;;5037176;28;20456;-68
2022/11/16 11:23:19;;;;;;;9.60;2.30;;;13.00;99.90;;;;;;5033837;28;20469;-68
2022/11/16 11:25:52;;;;;;;5.60;2.27;;;12.90;99.90;;;;;;5034359;28;20445;-68
2022/11/16 11:28:25;;;;;;;17.00;2.47;;;12.90;99.90;;;;;;5034520;28;20457;-68
2022/11/16 11:30:58;;;;;;;4.93;2.17;;;12.90;99.90;;;;;;5034191;28;20458;-68
2022/11/16 11:33:27;;;;;;;12.80;2.63;;;12.80;99.90;;;;;;5033899;28;20835;-68
2022/11/16 11:36:01;;;;;;;8.40;2.93;;;12.70;99.90;;;;;;5034218;28;20607;-68
2022/11/16 11:38:28;;;;;;;9.07;2.17;;;12.70;99.90;;;;;;5034435;28;20912;-68
2022/11/16 11:40:58;;;;;;;7.57;2.20;;;12.60;99.90;;;;;;5033674;28;20450;-68
2022/11/16 11:43:27;;;;;;;7.03;1.93;;;12.40;99.90;;;;;;5034181;28;20473;-68
2022/11/16 11:46:01;;;;;;;5.57;2.17;;;12.30;99.90;;;;;;5022132;28;20447;-68
2022/11/16 11:48:37;;;;;;;7.90;2.90;;;12.20;99.90;;;;;;5014567;28;20451;-68
2022/11/16 11:51:13;;;;;;;5.40;3.00;;;12.20;99.90;;;;;;5013899;28;20447;-68
2022/11/16 11:53:52;;;;;;;14.37;2.93;;;12.10;99.90;;;;;;5014142;28;20473;-68
2022/11/16 11:56:19;;;;;;;9.63;2.50;;;12.10;99.90;;;;;;5013710;28;20462;-68
2022/11/16 11:58:48;;;;;;;5.60;1.90;;;12.10;99.90;;;;;;5014181;28;20447;-68
2022/11/16 12:01:33;;;;;;;11.03;2.50;;;12.10;99.90;;;;;;5013703;28;20508;-68
2022/11/16 12:04:29;;;;;;;5.27;2.40;;;12.20;99.90;;;;;;5013949;28;20467;-68
2022/11/16 12:07:04;;;;;;;10.70;2.87;;;12.20;99.90;;;;;;5011768;28;20467;-67
2022/11/16 12:09:39;;;;;;;8.70;2.70;;;12.20;99.90;;;;;;5014070;28;20454;-67
2022/11/16 12:12:18;;;;;;;4.00;2.03;;;12.30;99.90;;;;;;5013587;28;20450;-68
2022/11/16 12:15:02;;;;;;;8.67;2.40;;;12.30;99.90;;;;;;5013632;28;20473;-67
2022/11/16 12:17:39;;;;;;;11.60;3.10;;;12.30;99.90;;;;;;5013372;28;20520;-67
2022/11/16 12:20:18;;;;;;;8.40;2.47;;;12.30;99.90;;;;;;5013712;28;20451;-67
2022/11/16 12:23:09;;;;;;;4.80;2.47;;;12.10;99.90;;;;;;5013203;28;20601;-67
2022/11/16 12:25:43;;;;;;;8.83;3.10;;;12.00;99.90;;;;;;5013511;28;20458;-67
2022/11/16 12:28:19;;;;;;;11.90;3.53;;;11.70;99.90;;;;;;5013512;28;21009;-67
2022/11/16 12:30:57;;;;;;;10.63;3.07;;;11.60;99.90;;;;;;5013007;28;20963;-67
2022/11/16 12:33:33;;;;;;;14.40;3.43;;;11.50;99.90;;;;;;5013061;28;20603;-67
2022/11/16 12:36:04;;;;;;;13.97;3.77;;;11.40;99.90;;;;;;5013428;28;20454;-67
2022/11/16 12:38:49;;;;;;;10.07;3.20;;;11.40;99.90;;;;;;5013315;28;20443;-67
2022/11/16 12:41:48;;;;;;;12.00;3.07;;;11.40;99.90;;;;;;5012848;28;20454;-67
2022/11/16 12:44:21;;;;;;;15.80;5.30;;;11.30;99.90;;;;;;5010753;28;20479;-67
2022/11/16 12:46:58;;;;;;;19.17;6.33;;;11.30;99.90;;;;;;5031963;28;20452;-67
2022/11/16 12:49:49;;;;;;;10.03;3.60;;;11.30;99.90;;;;;;5032943;28;20529;-67
2022/11/16 12:52:30;;;;;;;29.33;3.93;;;11.30;99.90;;;;;;5032203;28;20446;-67
2022/11/16 12:55:11;;;;;;;17.03;3.53;;;11.20;99.90;;;;;;5032825;28;20489;-67
2022/11/16 12:57:43;;;;;;;16.33;3.50;;;11.30;99.90;;;;;;5032594;28;20544;-67
2022/11/16 13:00:12;;;;;;;7.37;3.43;;;11.40;99.90;;;;;;5032650;28;20457;-67
2022/11/16 13:03:00;;;;;;;9.33;3.20;;;11.40;99.90;;;;;;5031771;28;20990;-67
2022/11/16 13:05:40;;;;;;;10.67;2.97;;;11.40;99.90;;;;;;5032666;28;20458;-67
2022/11/16 13:08:12;;;;;;;10.43;2.90;;;11.40;99.90;;;;;;5032316;28;20459;-67
2022/11/16 13:10:44;;;;;;;6.07;3.20;;;11.40;99.90;;;;;;5032310;28;20451;-67
2022/11/16 13:13:14;;;;;;;10.23;2.90;;;11.40;99.90;;;;;;5031988;28;20528;-67
2022/11/16 13:15:45;;;;;;;13.03;3.60;;;11.40;99.90;;;;;;5032329;28;20975;-67
2022/11/16 13:18:17;;;;;;;8.57;3.07;;;11.40;99.90;;;;;;5032162;28;20451;-67
2022/11/16 13:20:51;;;;;;;13.80;4.03;;;11.30;99.90;;;;;;5032080;28;20453;-67
2022/11/16 13:23:27;;;;;;;14.80;4.13;;;11.30;99.90;;;;;;5032108;28;20491;-67
2022/11/16 13:26:00;;;;;;;10.80;3.00;;;11.30;99.90;;;;;;5032206;28;20983;-67
2022/11/16 13:28:33;;;;;;;23.83;4.10;;;11.30;99.90;;;;;;5032090;28;20453;-67
2022/11/16 13:31:05;;;;;;;16.60;3.30;;;11.30;99.90;;;;;;5031931;28;20805;-67
2022/11/16 13:33:42;;;;;;;9.70;3.63;;;11.30;99.90;;;;;;5031601;28;20462;-67